sensor_id;sensor_type;location;lat;lon;timestamp;P1;durP1;ratioP1;P2;durP2;ratioP2
72584;SDS011;60618;40.084;32.908;2023-08-31T00:02:26;10.20;;;4.80;;
72584;SDS011;60618;40.084;32.908;2023-08-31T00:04:53;13.63;;;5.07;;
72584;SDS011;60618;40.084;32.908;2023-08-31T00:07:21;11.33;;;4.87;;
72584;SDS011;60618;40.084;32.908;2023-08-31T00:09:48;13.25;;;4.57;;
72584;SDS011;60618;40.084;32.908;2023-08-31T00:12:15;8.85;;;3.92;;
72584;SDS011;60618;40.084;32.908;2023-08-31T00:14:42;11.52;;;4.72;;
72584;SDS011;60618;40.084;32.908;2023-08-31T00:17:09;11.38;;;4.80;;
72584;SDS011;60618;40.084;32.908;2023-08-31T00:19:36;10.80;;;4.43;;
72584;SDS011;60618;40.084;32.908;2023-08-31T00:22:03;12.63;;;5.40;;
72584;SDS011;60618;40.084;32.908;2023-08-31T00:24:30;12.00;;;5.95;;
72584;SDS011;60618;40.084;32.908;2023-08-31T00:26:57;11.25;;;5.20;;
72584;SDS011;60618;40.084;32.908;2023-08-31T00:29:24;11.10;;;5.00;;
72584;SDS011;60618;40.084;32.908;2023-08-31T00:31:51;10.73;;;4.70;;
72584;SDS011;60618;40.084;32.908;2023-08-31T00:34:18;10.55;;;4.32;;
72584;SDS011;60618;40.084;32.908;2023-08-31T00:36:45;13.05;;;4.22;;
72584;SDS011;60618;40.084;32.908;2023-08-31T00:39:13;16.63;;;5.03;;
72584;SDS011;60618;40.084;32.908;2023-08-31T00:41:40;12.27;;;5.20;;
72584;SDS011;60618;40.084;32.908;2023-08-31T00:44:07;11.00;;;4.43;;
72584;SDS011;60618;40.084;32.908;2023-08-31T00:46:34;8.55;;;4.40;;
72584;SDS011;60618;40.084;32.908;2023-08-31T00:49:01;10.32;;;4.32;;
72584;SDS011;60618;40.084;32.908;2023-08-31T00:51:28;11.63;;;4.35;;
72584;SDS011;60618;40.084;32.908;2023-08-31T00:53:55;8.25;;;4.00;;
72584;SDS011;60618;40.084;32.908;2023-08-31T00:56:22;8.20;;;4.27;;
72584;SDS011;60618;40.084;32.908;2023-08-31T00:58:49;9.82;;;4.05;;
72584;SDS011;60618;40.084;32.908;2023-08-31T01:01:51;8.02;;;4.40;;
72584;SDS011;60618;40.084;32.908;2023-08-31T01:04:18;8.52;;;4.00;;
72584;SDS011;60618;40.084;32.908;2023-08-31T01:09:50;10.17;;;4.17;;
72584;SDS011;60618;40.084;32.908;2023-08-31T01:12:21;7.18;;;3.70;;
72584;SDS011;60618;40.084;32.908;2023-08-31T01:14:57;8.95;;;3.90;;
72584;SDS011;60618;40.084;32.908;2023-08-31T01:17:29;10.00;;;4.05;;
72584;SDS011;60618;40.084;32.908;2023-08-31T01:19:58;9.00;;;3.90;;
72584;SDS011;60618;40.084;32.908;2023-08-31T01:24:53;10.63;;;3.85;;
72584;SDS011;60618;40.084;32.908;2023-08-31T01:27:21;9.75;;;4.15;;
72584;SDS011;60618;40.084;32.908;2023-08-31T01:29:48;10.10;;;4.63;;
72584;SDS011;60618;40.084;32.908;2023-08-31T01:32:15;8.85;;;3.88;;
72584;SDS011;60618;40.084;32.908;2023-08-31T01:34:42;6.87;;;3.73;;
72584;SDS011;60618;40.084;32.908;2023-08-31T01:37:13;8.93;;;3.70;;
72584;SDS011;60618;40.084;32.908;2023-08-31T01:40:07;8.40;;;4.07;;
72584;SDS011;60618;40.084;32.908;2023-08-31T01:42:44;7.82;;;3.47;;
72584;SDS011;60618;40.084;32.908;2023-08-31T01:45:14;7.38;;;3.78;;
72584;SDS011;60618;40.084;32.908;2023-08-31T01:47:47;8.93;;;3.60;;
72584;SDS011;60618;40.084;32.908;2023-08-31T01:50:15;6.85;;;3.50;;
72584;SDS011;60618;40.084;32.908;2023-08-31T01:52:42;7.60;;;3.40;;
72584;SDS011;60618;40.084;32.908;2023-08-31T01:55:09;6.97;;;3.30;;
72584;SDS011;60618;40.084;32.908;2023-08-31T01:57:36;10.85;;;4.15;;
72584;SDS011;60618;40.084;32.908;2023-08-31T02:00:03;6.37;;;3.50;;
72584;SDS011;60618;40.084;32.908;2023-08-31T02:02:30;8.50;;;3.40;;
72584;SDS011;60618;40.084;32.908;2023-08-31T02:04:57;8.90;;;3.30;;
72584;SDS011;60618;40.084;32.908;2023-08-31T02:07:24;8.70;;;3.80;;
72584;SDS011;60618;40.084;32.908;2023-08-31T02:09:50;6.03;;;3.15;;
72584;SDS011;60618;40.084;32.908;2023-08-31T02:12:17;6.87;;;3.30;;
72584;SDS011;60618;40.084;32.908;2023-08-31T02:14:44;9.75;;;4.13;;
72584;SDS011;60618;40.084;32.908;2023-08-31T02:17:11;11.40;;;4.18;;
72584;SDS011;60618;40.084;32.908;2023-08-31T02:19:38;9.68;;;4.40;;
72584;SDS011;60618;40.084;32.908;2023-08-31T02:22:05;12.02;;;4.00;;
72584;SDS011;60618;40.084;32.908;2023-08-31T02:24:32;6.97;;;3.70;;
72584;SDS011;60618;40.084;32.908;2023-08-31T02:26:59;7.45;;;3.00;;
72584;SDS011;60618;40.084;32.908;2023-08-31T02:29:26;9.07;;;4.10;;
72584;SDS011;60618;40.084;32.908;2023-08-31T02:31:53;7.22;;;3.42;;
72584;SDS011;60618;40.084;32.908;2023-08-31T02:34:20;10.35;;;4.40;;
72584;SDS011;60618;40.084;32.908;2023-08-31T02:36:47;8.20;;;3.90;;
72584;SDS011;60618;40.084;32.908;2023-08-31T02:39:14;10.30;;;3.67;;
72584;SDS011;60618;40.084;32.908;2023-08-31T02:41:41;9.18;;;3.80;;
72584;SDS011;60618;40.084;32.908;2023-08-31T02:44:07;7.90;;;3.65;;
72584;SDS011;60618;40.084;32.908;2023-08-31T02:46:34;6.50;;;3.63;;
72584;SDS011;60618;40.084;32.908;2023-08-31T02:49:01;8.33;;;3.77;;
72584;SDS011;60618;40.084;32.908;2023-08-31T02:51:28;10.70;;;3.70;;
72584;SDS011;60618;40.084;32.908;2023-08-31T02:53:55;11.70;;;3.85;;
72584;SDS011;60618;40.084;32.908;2023-08-31T02:56:22;7.22;;;3.67;;
72584;SDS011;60618;40.084;32.908;2023-08-31T02:58:49;8.15;;;3.50;;
72584;SDS011;60618;40.084;32.908;2023-08-31T03:01:16;8.93;;;3.63;;
72584;SDS011;60618;40.084;32.908;2023-08-31T03:03:43;8.57;;;3.80;;
72584;SDS011;60618;40.084;32.908;2023-08-31T03:06:10;12.93;;;4.47;;
72584;SDS011;60618;40.084;32.908;2023-08-31T03:08:37;7.60;;;4.43;;
72584;SDS011;60618;40.084;32.908;2023-08-31T03:11:04;9.00;;;4.05;;
72584;SDS011;60618;40.084;32.908;2023-08-31T03:13:32;6.13;;;3.90;;
72584;SDS011;60618;40.084;32.908;2023-08-31T03:15:59;6.32;;;3.35;;
72584;SDS011;60618;40.084;32.908;2023-08-31T03:18:27;9.35;;;4.03;;
72584;SDS011;60618;40.084;32.908;2023-08-31T03:20:54;8.57;;;3.53;;
72584;SDS011;60618;40.084;32.908;2023-08-31T03:23:21;8.43;;;3.67;;
72584;SDS011;60618;40.084;32.908;2023-08-31T03:25:48;7.77;;;3.50;;
72584;SDS011;60618;40.084;32.908;2023-08-31T03:28:15;8.48;;;4.47;;
72584;SDS011;60618;40.084;32.908;2023-08-31T03:30:42;8.73;;;4.40;;
72584;SDS011;60618;40.084;32.908;2023-08-31T03:33:09;11.18;;;4.43;;
72584;SDS011;60618;40.084;32.908;2023-08-31T03:35:37;10.13;;;3.92;;
72584;SDS011;60618;40.084;32.908;2023-08-31T03:38:04;7.07;;;3.40;;
72584;SDS011;60618;40.084;32.908;2023-08-31T03:40:31;7.95;;;4.03;;
72584;SDS011;60618;40.084;32.908;2023-08-31T03:42:58;11.23;;;4.40;;
72584;SDS011;60618;40.084;32.908;2023-08-31T03:45:25;11.32;;;4.90;;
72584;SDS011;60618;40.084;32.908;2023-08-31T03:47:52;8.73;;;4.55;;
72584;SDS011;60618;40.084;32.908;2023-08-31T03:50:19;12.23;;;5.10;;
72584;SDS011;60618;40.084;32.908;2023-08-31T03:52:46;10.88;;;5.20;;
72584;SDS011;60618;40.084;32.908;2023-08-31T03:55:13;13.90;;;5.28;;
72584;SDS011;60618;40.084;32.908;2023-08-31T03:57:40;12.50;;;4.68;;
72584;SDS011;60618;40.084;32.908;2023-08-31T04:00:07;10.07;;;4.40;;
72584;SDS011;60618;40.084;32.908;2023-08-31T04:02:34;12.23;;;4.93;;
72584;SDS011;60618;40.084;32.908;2023-08-31T04:05:01;12.20;;;5.35;;
72584;SDS011;60618;40.084;32.908;2023-08-31T04:07:28;9.25;;;4.95;;
72584;SDS011;60618;40.084;32.908;2023-08-31T04:09:55;10.07;;;4.75;;
72584;SDS011;60618;40.084;32.908;2023-08-31T04:12:22;11.93;;;4.93;;
72584;SDS011;60618;40.084;32.908;2023-08-31T04:14:49;11.13;;;4.70;;
72584;SDS011;60618;40.084;32.908;2023-08-31T04:17:16;12.82;;;5.55;;
72584;SDS011;60618;40.084;32.908;2023-08-31T04:19:43;15.70;;;5.78;;
72584;SDS011;60618;40.084;32.908;2023-08-31T04:22:10;12.38;;;4.80;;
72584;SDS011;60618;40.084;32.908;2023-08-31T04:24:37;8.27;;;4.03;;
72584;SDS011;60618;40.084;32.908;2023-08-31T04:27:04;7.50;;;3.87;;
72584;SDS011;60618;40.084;32.908;2023-08-31T04:29:31;9.57;;;4.40;;
72584;SDS011;60618;40.084;32.908;2023-08-31T04:31:58;14.05;;;4.82;;
72584;SDS011;60618;40.084;32.908;2023-08-31T04:34:25;11.18;;;4.50;;
72584;SDS011;60618;40.084;32.908;2023-08-31T04:36:51;10.88;;;4.60;;
72584;SDS011;60618;40.084;32.908;2023-08-31T04:39:18;13.40;;;5.13;;
72584;SDS011;60618;40.084;32.908;2023-08-31T04:41:45;16.13;;;5.50;;
72584;SDS011;60618;40.084;32.908;2023-08-31T04:44:12;15.90;;;5.10;;
72584;SDS011;60618;40.084;32.908;2023-08-31T04:46:39;10.90;;;5.03;;
72584;SDS011;60618;40.084;32.908;2023-08-31T04:49:06;14.88;;;5.28;;
72584;SDS011;60618;40.084;32.908;2023-08-31T04:51:36;10.80;;;5.50;;
72584;SDS011;60618;40.084;32.908;2023-08-31T04:54:04;14.57;;;5.50;;
72584;SDS011;60618;40.084;32.908;2023-08-31T04:56:32;13.00;;;5.40;;
72584;SDS011;60618;40.084;32.908;2023-08-31T04:58:59;18.75;;;5.65;;
72584;SDS011;60618;40.084;32.908;2023-08-31T05:01:27;12.02;;;5.63;;
72584;SDS011;60618;40.084;32.908;2023-08-31T05:03:54;21.03;;;6.53;;
72584;SDS011;60618;40.084;32.908;2023-08-31T05:06:21;21.95;;;6.10;;
72584;SDS011;60618;40.084;32.908;2023-08-31T05:08:48;16.98;;;6.15;;
72584;SDS011;60618;40.084;32.908;2023-08-31T05:11:15;18.00;;;6.00;;
72584;SDS011;60618;40.084;32.908;2023-08-31T05:13:42;16.65;;;6.15;;
72584;SDS011;60618;40.084;32.908;2023-08-31T05:16:09;15.57;;;5.80;;
72584;SDS011;60618;40.084;32.908;2023-08-31T05:18:37;12.82;;;6.10;;
72584;SDS011;60618;40.084;32.908;2023-08-31T05:21:05;15.38;;;6.00;;
72584;SDS011;60618;40.084;32.908;2023-08-31T05:23:32;18.00;;;6.20;;
72584;SDS011;60618;40.084;32.908;2023-08-31T05:25:59;14.52;;;6.20;;
72584;SDS011;60618;40.084;32.908;2023-08-31T05:28:26;20.13;;;6.43;;
72584;SDS011;60618;40.084;32.908;2023-08-31T05:30:55;15.27;;;6.45;;
72584;SDS011;60618;40.084;32.908;2023-08-31T05:33:23;14.48;;;6.28;;
72584;SDS011;60618;40.084;32.908;2023-08-31T05:35:50;14.52;;;6.03;;
72584;SDS011;60618;40.084;32.908;2023-08-31T05:38:18;15.43;;;6.45;;
72584;SDS011;60618;40.084;32.908;2023-08-31T05:40:44;16.00;;;6.30;;
72584;SDS011;60618;40.084;32.908;2023-08-31T05:43:14;12.18;;;5.68;;
72584;SDS011;60618;40.084;32.908;2023-08-31T05:45:42;13.35;;;5.60;;
72584;SDS011;60618;40.084;32.908;2023-08-31T05:48:09;13.38;;;5.50;;
72584;SDS011;60618;40.084;32.908;2023-08-31T05:50:36;16.15;;;5.30;;
72584;SDS011;60618;40.084;32.908;2023-08-31T05:53:03;15.93;;;5.70;;
72584;SDS011;60618;40.084;32.908;2023-08-31T05:55:31;10.93;;;5.28;;
72584;SDS011;60618;40.084;32.908;2023-08-31T05:57:57;18.58;;;5.55;;
72584;SDS011;60618;40.084;32.908;2023-08-31T06:00:24;14.68;;;5.10;;
72584;SDS011;60618;40.084;32.908;2023-08-31T06:02:51;13.48;;;5.22;;
72584;SDS011;60618;40.084;32.908;2023-08-31T06:05:18;15.40;;;5.50;;
72584;SDS011;60618;40.084;32.908;2023-08-31T06:07:45;11.05;;;5.20;;
72584;SDS011;60618;40.084;32.908;2023-08-31T06:10:12;11.23;;;5.40;;
72584;SDS011;60618;40.084;32.908;2023-08-31T06:12:39;18.13;;;5.63;;
72584;SDS011;60618;40.084;32.908;2023-08-31T06:15:06;15.60;;;5.35;;
72584;SDS011;60618;40.084;32.908;2023-08-31T06:17:33;12.27;;;4.73;;
72584;SDS011;60618;40.084;32.908;2023-08-31T06:20:00;10.43;;;4.93;;
72584;SDS011;60618;40.084;32.908;2023-08-31T06:22:27;10.57;;;4.65;;
72584;SDS011;60618;40.084;32.908;2023-08-31T06:24:54;11.95;;;4.40;;
72584;SDS011;60618;40.084;32.908;2023-08-31T06:27:21;13.02;;;4.88;;
72584;SDS011;60618;40.084;32.908;2023-08-31T06:29:48;11.87;;;4.60;;
72584;SDS011;60618;40.084;32.908;2023-08-31T06:32:16;16.33;;;5.28;;
72584;SDS011;60618;40.084;32.908;2023-08-31T06:34:43;8.82;;;4.75;;
72584;SDS011;60618;40.084;32.908;2023-08-31T06:37:11;12.98;;;5.07;;
72584;SDS011;60618;40.084;32.908;2023-08-31T06:39:38;12.35;;;4.90;;
72584;SDS011;60618;40.084;32.908;2023-08-31T06:42:05;14.37;;;4.83;;
72584;SDS011;60618;40.084;32.908;2023-08-31T06:44:32;15.20;;;5.85;;
72584;SDS011;60618;40.084;32.908;2023-08-31T06:46:59;14.80;;;5.30;;
72584;SDS011;60618;40.084;32.908;2023-08-31T06:49:26;13.40;;;5.88;;
72584;SDS011;60618;40.084;32.908;2023-08-31T06:51:53;14.52;;;5.55;;
72584;SDS011;60618;40.084;32.908;2023-08-31T06:54:20;11.57;;;5.00;;
72584;SDS011;60618;40.084;32.908;2023-08-31T06:56:47;14.18;;;5.40;;
72584;SDS011;60618;40.084;32.908;2023-08-31T06:59:14;19.48;;;5.45;;
72584;SDS011;60618;40.084;32.908;2023-08-31T07:01:41;14.38;;;5.35;;
72584;SDS011;60618;40.084;32.908;2023-08-31T07:04:08;10.80;;;4.78;;
72584;SDS011;60618;40.084;32.908;2023-08-31T07:06:35;14.60;;;5.33;;
72584;SDS011;60618;40.084;32.908;2023-08-31T07:09:02;15.65;;;5.60;;
72584;SDS011;60618;40.084;32.908;2023-08-31T07:11:29;14.93;;;5.20;;
72584;SDS011;60618;40.084;32.908;2023-08-31T07:13:56;12.82;;;5.10;;
72584;SDS011;60618;40.084;32.908;2023-08-31T07:16:23;12.95;;;4.95;;
72584;SDS011;60618;40.084;32.908;2023-08-31T07:18:50;11.40;;;5.37;;
72584;SDS011;60618;40.084;32.908;2023-08-31T07:21:17;11.70;;;5.25;;
72584;SDS011;60618;40.084;32.908;2023-08-31T07:23:44;11.90;;;5.07;;
72584;SDS011;60618;40.084;32.908;2023-08-31T07:26:11;13.63;;;5.40;;
72584;SDS011;60618;40.084;32.908;2023-08-31T07:28:38;13.27;;;5.05;;
72584;SDS011;60618;40.084;32.908;2023-08-31T07:31:06;15.07;;;5.20;;
72584;SDS011;60618;40.084;32.908;2023-08-31T07:33:33;11.90;;;5.43;;
72584;SDS011;60618;40.084;32.908;2023-08-31T07:36:02;16.55;;;5.05;;
72584;SDS011;60618;40.084;32.908;2023-08-31T07:38:30;15.85;;;5.47;;
72584;SDS011;60618;40.084;32.908;2023-08-31T07:40:57;14.73;;;5.65;;
72584;SDS011;60618;40.084;32.908;2023-08-31T07:43:25;17.40;;;5.30;;
72584;SDS011;60618;40.084;32.908;2023-08-31T07:45:52;16.20;;;5.65;;
72584;SDS011;60618;40.084;32.908;2023-08-31T07:48:20;15.00;;;5.25;;
72584;SDS011;60618;40.084;32.908;2023-08-31T07:50:47;10.60;;;4.93;;
72584;SDS011;60618;40.084;32.908;2023-08-31T07:53:14;16.20;;;5.75;;
72584;SDS011;60618;40.084;32.908;2023-08-31T07:55:41;11.97;;;5.70;;
72584;SDS011;60618;40.084;32.908;2023-08-31T07:58:08;14.52;;;5.65;;
72584;SDS011;60618;40.084;32.908;2023-08-31T08:00:36;15.48;;;5.70;;
72584;SDS011;60618;40.084;32.908;2023-08-31T08:03:03;14.85;;;5.72;;
72584;SDS011;60618;40.084;32.908;2023-08-31T08:05:30;18.52;;;5.85;;
72584;SDS011;60618;40.084;32.908;2023-08-31T08:07:57;14.63;;;5.90;;
72584;SDS011;60618;40.084;32.908;2023-08-31T08:10:25;15.05;;;5.63;;
72584;SDS011;60618;40.084;32.908;2023-08-31T08:12:52;13.93;;;5.47;;
72584;SDS011;60618;40.084;32.908;2023-08-31T08:15:19;12.70;;;5.40;;
72584;SDS011;60618;40.084;32.908;2023-08-31T08:17:45;16.00;;;5.60;;
72584;SDS011;60618;40.084;32.908;2023-08-31T08:20:12;15.40;;;5.80;;
72584;SDS011;60618;40.084;32.908;2023-08-31T08:22:39;17.25;;;6.05;;
72584;SDS011;60618;40.084;32.908;2023-08-31T08:25:06;15.18;;;5.97;;
72584;SDS011;60618;40.084;32.908;2023-08-31T08:27:33;15.30;;;6.40;;
72584;SDS011;60618;40.084;32.908;2023-08-31T08:30:00;16.60;;;5.63;;
72584;SDS011;60618;40.084;32.908;2023-08-31T08:32:27;17.30;;;6.10;;
72584;SDS011;60618;40.084;32.908;2023-08-31T08:34:54;19.85;;;5.93;;
72584;SDS011;60618;40.084;32.908;2023-08-31T08:37:21;18.73;;;6.15;;
72584;SDS011;60618;40.084;32.908;2023-08-31T08:39:50;22.35;;;6.05;;
72584;SDS011;60618;40.084;32.908;2023-08-31T08:42:19;17.42;;;5.95;;
72584;SDS011;60618;40.084;32.908;2023-08-31T08:44:51;18.93;;;6.00;;
72584;SDS011;60618;40.084;32.908;2023-08-31T08:47:18;18.08;;;5.97;;
72584;SDS011;60618;40.084;32.908;2023-08-31T08:49:48;19.00;;;6.25;;
72584;SDS011;60618;40.084;32.908;2023-08-31T08:52:16;15.07;;;6.47;;
72584;SDS011;60618;40.084;32.908;2023-08-31T08:54:44;19.23;;;6.47;;
72584;SDS011;60618;40.084;32.908;2023-08-31T08:57:14;15.20;;;6.20;;
72584;SDS011;60618;40.084;32.908;2023-08-31T08:59:42;25.75;;;6.50;;
72584;SDS011;60618;40.084;32.908;2023-08-31T09:02:10;16.58;;;5.90;;
72584;SDS011;60618;40.084;32.908;2023-08-31T09:04:40;17.42;;;6.18;;
72584;SDS011;60618;40.084;32.908;2023-08-31T09:07:07;16.23;;;7.05;;
72584;SDS011;60618;40.084;32.908;2023-08-31T09:09:47;14.20;;;6.20;;
72584;SDS011;60618;40.084;32.908;2023-08-31T09:12:16;11.95;;;5.68;;
72584;SDS011;60618;40.084;32.908;2023-08-31T09:14:43;18.10;;;6.28;;
72584;SDS011;60618;40.084;32.908;2023-08-31T09:17:10;17.75;;;6.25;;
72584;SDS011;60618;40.084;32.908;2023-08-31T09:19:37;13.75;;;6.55;;
72584;SDS011;60618;40.084;32.908;2023-08-31T09:22:03;17.97;;;6.80;;
72584;SDS011;60618;40.084;32.908;2023-08-31T09:24:39;17.02;;;6.40;;
72584;SDS011;60618;40.084;32.908;2023-08-31T09:27:09;18.37;;;6.93;;
72584;SDS011;60618;40.084;32.908;2023-08-31T09:29:37;20.63;;;6.88;;
72584;SDS011;60618;40.084;32.908;2023-08-31T09:32:04;21.15;;;7.45;;
72584;SDS011;60618;40.084;32.908;2023-08-31T09:34:35;17.60;;;6.83;;
72584;SDS011;60618;40.084;32.908;2023-08-31T09:37:06;21.23;;;7.07;;
72584;SDS011;60618;40.084;32.908;2023-08-31T09:39:41;17.00;;;7.32;;
72584;SDS011;60618;40.084;32.908;2023-08-31T09:42:08;14.55;;;6.82;;
72584;SDS011;60618;40.084;32.908;2023-08-31T09:44:40;21.20;;;7.78;;
72584;SDS011;60618;40.084;32.908;2023-08-31T09:47:09;21.00;;;7.30;;
72584;SDS011;60618;40.084;32.908;2023-08-31T09:49:37;20.83;;;7.20;;
72584;SDS011;60618;40.084;32.908;2023-08-31T09:52:07;17.60;;;6.57;;
72584;SDS011;60618;40.084;32.908;2023-08-31T09:54:36;16.92;;;6.15;;
72584;SDS011;60618;40.084;32.908;2023-08-31T09:57:03;15.45;;;6.43;;
72584;SDS011;60618;40.084;32.908;2023-08-31T09:59:32;17.17;;;6.37;;
72584;SDS011;60618;40.084;32.908;2023-08-31T10:01:58;16.52;;;6.40;;
72584;SDS011;60618;40.084;32.908;2023-08-31T10:04:26;16.52;;;6.43;;
72584;SDS011;60618;40.084;32.908;2023-08-31T10:06:55;17.55;;;6.55;;
72584;SDS011;60618;40.084;32.908;2023-08-31T10:09:23;17.83;;;6.60;;
72584;SDS011;60618;40.084;32.908;2023-08-31T10:11:51;22.63;;;6.97;;
72584;SDS011;60618;40.084;32.908;2023-08-31T10:14:18;13.55;;;5.82;;
72584;SDS011;60618;40.084;32.908;2023-08-31T10:16:45;16.63;;;6.60;;
72584;SDS011;60618;40.084;32.908;2023-08-31T10:19:14;25.75;;;6.80;;
72584;SDS011;60618;40.084;32.908;2023-08-31T10:21:41;17.02;;;6.63;;
72584;SDS011;60618;40.084;32.908;2023-08-31T10:24:08;14.10;;;6.23;;
72584;SDS011;60618;40.084;32.908;2023-08-31T10:26:35;17.85;;;6.20;;
72584;SDS011;60618;40.084;32.908;2023-08-31T10:29:02;15.50;;;6.30;;
72584;SDS011;60618;40.084;32.908;2023-08-31T10:31:33;14.48;;;6.60;;
72584;SDS011;60618;40.084;32.908;2023-08-31T10:34:04;16.15;;;5.82;;
72584;SDS011;60618;40.084;32.908;2023-08-31T10:36:39;18.03;;;6.60;;
72584;SDS011;60618;40.084;32.908;2023-08-31T10:39:14;13.27;;;6.40;;
72584;SDS011;60618;40.084;32.908;2023-08-31T10:41:55;15.93;;;6.25;;
72584;SDS011;60618;40.084;32.908;2023-08-31T10:44:27;15.63;;;6.10;;
72584;SDS011;60618;40.084;32.908;2023-08-31T10:46:59;12.35;;;6.28;;
72584;SDS011;60618;40.084;32.908;2023-08-31T10:49:29;14.10;;;6.23;;
72584;SDS011;60618;40.084;32.908;2023-08-31T10:51:56;10.82;;;6.53;;
72584;SDS011;60618;40.084;32.908;2023-08-31T10:54:54;13.50;;;5.72;;
72584;SDS011;60618;40.084;32.908;2023-08-31T10:59:57;19.17;;;6.13;;
72584;SDS011;60618;40.084;32.908;2023-08-31T11:05:02;12.73;;;5.88;;
72584;SDS011;60618;40.084;32.908;2023-08-31T11:07:33;13.02;;;5.90;;
72584;SDS011;60618;40.084;32.908;2023-08-31T11:10:06;14.73;;;6.40;;
72584;SDS011;60618;40.084;32.908;2023-08-31T11:12:34;15.57;;;6.10;;
72584;SDS011;60618;40.084;32.908;2023-08-31T11:15:01;12.67;;;6.20;;
72584;SDS011;60618;40.084;32.908;2023-08-31T11:17:28;17.05;;;6.80;;
72584;SDS011;60618;40.084;32.908;2023-08-31T11:19:56;11.85;;;6.05;;
72584;SDS011;60618;40.084;32.908;2023-08-31T11:22:23;12.82;;;6.38;;
72584;SDS011;60618;40.084;32.908;2023-08-31T11:24:50;17.88;;;6.10;;
72584;SDS011;60618;40.084;32.908;2023-08-31T11:27:21;15.20;;;6.53;;
72584;SDS011;60618;40.084;32.908;2023-08-31T11:29:48;15.00;;;6.15;;
72584;SDS011;60618;40.084;32.908;2023-08-31T11:32:15;11.35;;;5.63;;
72584;SDS011;60618;40.084;32.908;2023-08-31T11:34:43;16.67;;;6.60;;
72584;SDS011;60618;40.084;32.908;2023-08-31T11:37:13;14.73;;;6.45;;
72584;SDS011;60618;40.084;32.908;2023-08-31T11:39:42;13.87;;;5.93;;
72584;SDS011;60618;40.084;32.908;2023-08-31T11:42:19;14.02;;;6.13;;
72584;SDS011;60618;40.084;32.908;2023-08-31T11:44:48;14.38;;;6.00;;
72584;SDS011;60618;40.084;32.908;2023-08-31T11:47:18;13.23;;;5.72;;
72584;SDS011;60618;40.084;32.908;2023-08-31T11:49:46;12.13;;;5.50;;
72584;SDS011;60618;40.084;32.908;2023-08-31T11:52:14;16.37;;;5.90;;
72584;SDS011;60618;40.084;32.908;2023-08-31T11:54:42;11.57;;;5.65;;
72584;SDS011;60618;40.084;32.908;2023-08-31T11:57:10;13.52;;;6.30;;
72584;SDS011;60618;40.084;32.908;2023-08-31T11:59:37;11.20;;;6.05;;
72584;SDS011;60618;40.084;32.908;2023-08-31T12:02:07;17.95;;;6.32;;
72584;SDS011;60618;40.084;32.908;2023-08-31T12:04:44;13.60;;;5.90;;
72584;SDS011;60618;40.084;32.908;2023-08-31T12:07:18;15.07;;;6.38;;
72584;SDS011;60618;40.084;32.908;2023-08-31T12:09:45;12.68;;;5.72;;
72584;SDS011;60618;40.084;32.908;2023-08-31T12:12:19;12.55;;;5.60;;
72584;SDS011;60618;40.084;32.908;2023-08-31T12:14:47;13.75;;;5.57;;
72584;SDS011;60618;40.084;32.908;2023-08-31T12:17:19;11.47;;;5.83;;
72584;SDS011;60618;40.084;32.908;2023-08-31T12:19:46;11.73;;;5.63;;
72584;SDS011;60618;40.084;32.908;2023-08-31T12:22:12;11.70;;;5.70;;
72584;SDS011;60618;40.084;32.908;2023-08-31T12:24:40;12.95;;;5.55;;
72584;SDS011;60618;40.084;32.908;2023-08-31T12:27:08;13.45;;;6.35;;
72584;SDS011;60618;40.084;32.908;2023-08-31T12:29:36;11.60;;;5.67;;
72584;SDS011;60618;40.084;32.908;2023-08-31T12:32:03;14.82;;;5.78;;
72584;SDS011;60618;40.084;32.908;2023-08-31T12:34:30;11.35;;;5.50;;
72584;SDS011;60618;40.084;32.908;2023-08-31T12:36:57;14.25;;;5.63;;
72584;SDS011;60618;40.084;32.908;2023-08-31T12:39:24;9.75;;;5.45;;
72584;SDS011;60618;40.084;32.908;2023-08-31T12:41:53;14.40;;;6.00;;
72584;SDS011;60618;40.084;32.908;2023-08-31T12:44:31;13.52;;;5.90;;
72584;SDS011;60618;40.084;32.908;2023-08-31T12:46:58;13.32;;;6.03;;
72584;SDS011;60618;40.084;32.908;2023-08-31T12:49:24;15.05;;;6.15;;
72584;SDS011;60618;40.084;32.908;2023-08-31T12:51:51;15.18;;;5.50;;
72584;SDS011;60618;40.084;32.908;2023-08-31T12:54:18;10.60;;;5.80;;
72584;SDS011;60618;40.084;32.908;2023-08-31T12:56:45;12.30;;;5.95;;
72584;SDS011;60618;40.084;32.908;2023-08-31T12:59:12;20.67;;;6.45;;
72584;SDS011;60618;40.084;32.908;2023-08-31T13:01:40;11.45;;;5.90;;
72584;SDS011;60618;40.084;32.908;2023-08-31T13:04:06;13.85;;;6.22;;
72584;SDS011;60618;40.084;32.908;2023-08-31T13:06:33;15.67;;;6.13;;
72584;SDS011;60618;40.084;32.908;2023-08-31T13:09:00;11.88;;;6.00;;
72584;SDS011;60618;40.084;32.908;2023-08-31T13:11:28;12.80;;;6.07;;
72584;SDS011;60618;40.084;32.908;2023-08-31T13:13:55;15.07;;;6.70;;
72584;SDS011;60618;40.084;32.908;2023-08-31T13:16:22;16.98;;;6.30;;
72584;SDS011;60618;40.084;32.908;2023-08-31T13:18:49;15.53;;;6.20;;
72584;SDS011;60618;40.084;32.908;2023-08-31T13:21:16;19.23;;;6.50;;
72584;SDS011;60618;40.084;32.908;2023-08-31T13:23:43;17.13;;;6.38;;
72584;SDS011;60618;40.084;32.908;2023-08-31T13:26:10;16.92;;;6.20;;
72584;SDS011;60618;40.084;32.908;2023-08-31T13:28:37;15.38;;;6.20;;
72584;SDS011;60618;40.084;32.908;2023-08-31T13:31:04;15.90;;;5.93;;
72584;SDS011;60618;40.084;32.908;2023-08-31T13:33:31;14.68;;;5.63;;
72584;SDS011;60618;40.084;32.908;2023-08-31T13:35:59;15.27;;;5.80;;
72584;SDS011;60618;40.084;32.908;2023-08-31T13:38:26;12.88;;;5.40;;
72584;SDS011;60618;40.084;32.908;2023-08-31T13:40:54;13.63;;;5.70;;
72584;SDS011;60618;40.084;32.908;2023-08-31T13:43:24;13.90;;;5.40;;
72584;SDS011;60618;40.084;32.908;2023-08-31T13:45:51;13.48;;;5.60;;
72584;SDS011;60618;40.084;32.908;2023-08-31T13:48:18;16.90;;;5.85;;
72584;SDS011;60618;40.084;32.908;2023-08-31T13:50:46;15.60;;;6.22;;
72584;SDS011;60618;40.084;32.908;2023-08-31T13:53:13;16.08;;;6.00;;
72584;SDS011;60618;40.084;32.908;2023-08-31T13:55:40;19.90;;;5.93;;
72584;SDS011;60618;40.084;32.908;2023-08-31T13:58:07;17.02;;;5.90;;
72584;SDS011;60618;40.084;32.908;2023-08-31T14:00:35;11.35;;;6.20;;
72584;SDS011;60618;40.084;32.908;2023-08-31T14:03:04;15.43;;;5.63;;
72584;SDS011;60618;40.084;32.908;2023-08-31T14:05:31;18.63;;;6.07;;
72584;SDS011;60618;40.084;32.908;2023-08-31T14:07:59;15.73;;;5.70;;
72584;SDS011;60618;40.084;32.908;2023-08-31T14:10:27;13.27;;;5.53;;
72584;SDS011;60618;40.084;32.908;2023-08-31T14:12:54;14.45;;;5.78;;
72584;SDS011;60618;40.084;32.908;2023-08-31T14:15:21;14.68;;;5.60;;
72584;SDS011;60618;40.084;32.908;2023-08-31T14:17:51;16.73;;;5.78;;
72584;SDS011;60618;40.084;32.908;2023-08-31T14:20:18;13.43;;;5.60;;
72584;SDS011;60618;40.084;32.908;2023-08-31T14:22:45;16.23;;;5.97;;
72584;SDS011;60618;40.084;32.908;2023-08-31T14:25:12;18.55;;;6.10;;
72584;SDS011;60618;40.084;32.908;2023-08-31T14:27:39;16.92;;;6.35;;
72584;SDS011;60618;40.084;32.908;2023-08-31T14:30:06;19.73;;;6.97;;
72584;SDS011;60618;40.084;32.908;2023-08-31T14:32:34;13.17;;;6.30;;
72584;SDS011;60618;40.084;32.908;2023-08-31T14:35:01;18.33;;;6.75;;
72584;SDS011;60618;40.084;32.908;2023-08-31T14:37:28;13.15;;;5.85;;
72584;SDS011;60618;40.084;32.908;2023-08-31T14:39:57;14.80;;;6.10;;